sensor_id;sensor_type;location;lat;lon;timestamp;pressure;altitude;pressure_sealevel;temperature;humidity
43820;BME280;67762;52.476;6.046;2023-09-12T00:02:05;101273.56;;;19.31;100.00
43820;BME280;67762;52.476;6.046;2023-09-12T00:04:31;101280.66;;;19.32;100.00
43820;BME280;67762;52.476;6.046;2023-09-12T00:06:57;101279.81;;;19.31;100.00
43820;BME280;67762;52.476;6.046;2023-09-12T00:09:22;101275.66;;;19.28;100.00
43820;BME280;67762;52.476;6.046;2023-09-12T00:11:48;101280.47;;;19.26;100.00
43820;BME280;67762;52.476;6.046;2023-09-12T00:14:17;101266.28;;;19.24;100.00
43820;BME280;67762;52.476;6.046;2023-09-12T00:16:43;101259.44;;;19.22;100.00
43820;BME280;67762;52.476;6.046;2023-09-12T00:19:09;101248.84;;;19.20;100.00
43820;BME280;67762;52.476;6.046;2023-09-12T00:21:34;101246.31;;;19.19;100.00
43820;BME280;67762;52.476;6.046;2023-09-12T00:24:00;101247.56;;;19.16;100.00
43820;BME280;67762;52.476;6.046;2023-09-12T00:26:26;101244.66;;;19.11;100.00
43820;BME280;67762;52.476;6.046;2023-09-12T00:28:53;101239.69;;;19.08;100.00
43820;BME280;67762;52.476;6.046;2023-09-12T00:31:19;101234.06;;;19.03;100.00
43820;BME280;67762;52.476;6.046;2023-09-12T00:33:45;101232.00;;;18.99;100.00
43820;BME280;67762;52.476;6.046;2023-09-12T00:36:11;101238.03;;;18.94;100.00
43820;BME280;67762;52.476;6.046;2023-09-12T00:38:37;101227.00;;;18.89;100.00
43820;BME280;67762;52.476;6.046;2023-09-12T00:41:02;101235.75;;;18.85;100.00
43820;BME280;67762;52.476;6.046;2023-09-12T00:43:28;101240.75;;;18.81;100.00
43820;BME280;67762;52.476;6.046;2023-09-12T00:45:54;101251.34;;;18.76;100.00
43820;BME280;67762;52.476;6.046;2023-09-12T00:48:21;101243.22;;;18.69;100.00
43820;BME280;67762;52.476;6.046;2023-09-12T00:50:49;101243.63;;;18.66;100.00
43820;BME280;67762;52.476;6.046;2023-09-12T00:53:15;101238.03;;;18.61;100.00
43820;BME280;67762;52.476;6.046;2023-09-12T00:55:48;101241.53;;;18.55;100.00
43820;BME280;67762;52.476;6.046;2023-09-12T00:58:14;101240.94;;;18.53;100.00
43820;BME280;67762;52.476;6.046;2023-09-12T01:00:41;101254.00;;;18.50;100.00
43820;BME280;67762;52.476;6.046;2023-09-12T01:03:07;101250.03;;;18.46;100.00
43820;BME280;67762;52.476;6.046;2023-09-12T01:05:33;101242.34;;;18.43;100.00
43820;BME280;67762;52.476;6.046;2023-09-12T01:08:00;101241.91;;;18.39;100.00
43820;BME280;67762;52.476;6.046;2023-09-12T01:10:26;101240.84;;;18.34;100.00
43820;BME280;67762;52.476;6.046;2023-09-12T01:12:52;101243.97;;;18.31;100.00
43820;BME280;67762;52.476;6.046;2023-09-12T01:15:18;101243.75;;;18.26;100.00
43820;BME280;67762;52.476;6.046;2023-09-12T01:17:45;101233.13;;;18.18;100.00
43820;BME280;67762;52.476;6.046;2023-09-12T01:20:19;101237.47;;;18.12;100.00
43820;BME280;67762;52.476;6.046;2023-09-12T01:23:27;101235.19;;;18.09;100.00
43820;BME280;67762;52.476;6.046;2023-09-12T01:26:17;101234.75;;;18.05;100.00
43820;BME280;67762;52.476;6.046;2023-09-12T01:28:44;101235.81;;;18.04;100.00
43820;BME280;67762;52.476;6.046;2023-09-12T01:31:12;101235.59;;;18.06;100.00
43820;BME280;67762;52.476;6.046;2023-09-12T01:33:39;101236.00;;;18.03;100.00
43820;BME280;67762;52.476;6.046;2023-09-12T01:36:05;101238.91;;;18.01;100.00
43820;BME280;67762;52.476;6.046;2023-09-12T01:38:31;101229.34;;;18.05;100.00
43820;BME280;67762;52.476;6.046;2023-09-12T01:40:56;101241.84;;;18.06;100.00
43820;BME280;67762;52.476;6.046;2023-09-12T01:43:24;101241.84;;;18.06;100.00
43820;BME280;67762;52.476;6.046;2023-09-12T01:45:54;101246.22;;;18.07;100.00
43820;BME280;67762;52.476;6.046;2023-09-12T01:48:23;101242.66;;;18.07;100.00
43820;BME280;67762;52.476;6.046;2023-09-12T01:50:50;101248.91;;;18.07;100.00
43820;BME280;67762;52.476;6.046;2023-09-12T01:53:16;101242.25;;;18.10;100.00
43820;BME280;67762;52.476;6.046;2023-09-12T01:55:43;101241.44;;;18.09;100.00
43820;BME280;67762;52.476;6.046;2023-09-12T01:58:11;101236.44;;;18.06;100.00
43820;BME280;67762;52.476;6.046;2023-09-12T02:00:37;101232.69;;;18.01;100.00
43820;BME280;67762;52.476;6.046;2023-09-12T02:03:04;101237.63;;;17.97;100.00
43820;BME280;67762;52.476;6.046;2023-09-12T02:05:29;101234.94;;;17.97;100.00
43820;BME280;67762;52.476;6.046;2023-09-12T02:07:55;101239.91;;;17.94;100.00
43820;BME280;67762;52.476;6.046;2023-09-12T02:10:21;101249.63;;;17.88;100.00
43820;BME280;67762;52.476;6.046;2023-09-12T02:12:47;101247.78;;;17.89;100.00
43820;BME280;67762;52.476;6.046;2023-09-12T02:15:12;101251.31;;;17.89;100.00
43820;BME280;67762;52.476;6.046;2023-09-12T02:17:38;101247.34;;;17.85;100.00
43820;BME280;67762;52.476;6.046;2023-09-12T02:20:07;101252.16;;;17.90;100.00
43820;BME280;67762;52.476;6.046;2023-09-12T02:22:33;101253.63;;;17.92;100.00
43820;BME280;67762;52.476;6.046;2023-09-12T02:24:58;101243.03;;;17.97;100.00
43820;BME280;67762;52.476;6.046;2023-09-12T02:27:24;101239.09;;;18.00;100.00
43820;BME280;67762;52.476;6.046;2023-09-12T02:29:50;101242.22;;;18.03;100.00
43820;BME280;67762;52.476;6.046;2023-09-12T02:32:15;101236.00;;;18.03;100.00
43820;BME280;67762;52.476;6.046;2023-09-12T02:34:41;101239.31;;;18.05;100.00
43820;BME280;67762;52.476;6.046;2023-09-12T02:37:07;101236.63;;;18.05;100.00
43820;BME280;67762;52.476;6.046;2023-09-12T02:39:33;101239.97;;;18.07;100.00
43820;BME280;67762;52.476;6.046;2023-09-12T02:41:58;101236.88;;;18.10;100.00
43820;BME280;67762;52.476;6.046;2023-09-12T02:44:24;101242.88;;;18.12;100.00
43820;BME280;67762;52.476;6.046;2023-09-12T02:46:50;101246.44;;;18.13;100.00
43820;BME280;67762;52.476;6.046;2023-09-12T02:49:16;101249.75;;;18.15;100.00
43820;BME280;67762;52.476;6.046;2023-09-12T02:51:42;101243.31;;;18.16;100.00
43820;BME280;67762;52.476;6.046;2023-09-12T02:54:07;101238.72;;;18.16;100.00
43820;BME280;67762;52.476;6.046;2023-09-12T02:56:33;101243.09;;;18.17;100.00
43820;BME280;67762;52.476;6.046;2023-09-12T02:58:59;101244.97;;;18.17;100.00
43820;BME280;67762;52.476;6.046;2023-09-12T03:01:25;101248.72;;;18.16;100.00
43820;BME280;67762;52.476;6.046;2023-09-12T03:03:54;101253.28;;;18.15;100.00
43820;BME280;67762;52.476;6.046;2023-09-12T03:06:20;101251.59;;;18.14;100.00
43820;BME280;67762;52.476;6.046;2023-09-12T03:08:47;101252.22;;;18.16;100.00
43820;BME280;67762;52.476;6.046;2023-09-12T03:11:13;101258.69;;;18.15;100.00
43820;BME280;67762;52.476;6.046;2023-09-12T03:13:40;101254.94;;;18.16;100.00
43820;BME280;67762;52.476;6.046;2023-09-12T03:16:13;101245.19;;;18.15;100.00
43820;BME280;67762;52.476;6.046;2023-09-12T03:18:39;101249.13;;;18.19;100.00
43820;BME280;67762;52.476;6.046;2023-09-12T03:21:06;101247.06;;;18.21;100.00
43820;BME280;67762;52.476;6.046;2023-09-12T03:23:32;101247.88;;;18.22;100.00
43820;BME280;67762;52.476;6.046;2023-09-12T03:26:05;101257.47;;;18.24;100.00
43820;BME280;67762;52.476;6.046;2023-09-12T03:28:32;101254.34;;;18.27;100.00
43820;BME280;67762;52.476;6.046;2023-09-12T03:31:07;101246.25;;;18.27;100.00
43820;BME280;67762;52.476;6.046;2023-09-12T03:33:33;101250.00;;;18.26;100.00
43820;BME280;67762;52.476;6.046;2023-09-12T03:35:59;101245.41;;;18.20;100.00
43820;BME280;67762;52.476;6.046;2023-09-12T03:38:24;101251.59;;;18.14;100.00
43820;BME280;67762;52.476;6.046;2023-09-12T03:40:50;101239.97;;;18.07;100.00
43820;BME280;67762;52.476;6.046;2023-09-12T03:43:16;101246.78;;;18.03;100.00
43820;BME280;67762;52.476;6.046;2023-09-12T03:45:41;101232.06;;;17.99;100.00
43820;BME280;67762;52.476;6.046;2023-09-12T03:48:08;101240.75;;;17.94;100.00
43820;BME280;67762;52.476;6.046;2023-09-12T03:50:33;101237.59;;;17.91;100.00
43820;BME280;67762;52.476;6.046;2023-09-12T03:52:59;101243.22;;;17.89;100.00
43820;BME280;67762;52.476;6.046;2023-09-12T03:55:25;101241.75;;;17.87;100.00
43820;BME280;67762;52.476;6.046;2023-09-12T03:57:51;101242.16;;;17.84;100.00
43820;BME280;67762;52.476;6.046;2023-09-12T04:00:16;101232.78;;;17.80;100.00
43820;BME280;67762;52.476;6.046;2023-09-12T04:02:46;101237.78;;;17.76;100.00
43820;BME280;67762;52.476;6.046;2023-09-12T04:05:14;101232.56;;;17.75;100.00
43820;BME280;67762;52.476;6.046;2023-09-12T04:07:39;101227.78;;;17.70;100.00
43820;BME280;67762;52.476;6.046;2023-09-12T04:10:05;101227.56;;;17.65;100.00
43820;BME280;67762;52.476;6.046;2023-09-12T04:12:31;101217.56;;;17.59;100.00
43820;BME280;67762;52.476;6.046;2023-09-12T04:14:56;101209.38;;;17.52;100.00
43820;BME280;67762;52.476;6.046;2023-09-12T04:17:22;101209.16;;;17.47;100.00
43820;BME280;67762;52.476;6.046;2023-09-12T04:19:48;101212.47;;;17.43;100.00
43820;BME280;67762;52.476;6.046;2023-09-12T04:22:13;101214.72;;;17.39;100.00
43820;BME280;67762;52.476;6.046;2023-09-12T04:24:39;101213.44;;;17.35;100.00
43820;BME280;67762;52.476;6.046;2023-09-12T04:27:05;101213.66;;;17.34;100.00
43820;BME280;67762;52.476;6.046;2023-09-12T04:29:33;101212.81;;;17.33;100.00
43820;BME280;67762;52.476;6.046;2023-09-12T04:31:59;101205.13;;;17.30;100.00
43820;BME280;67762;52.476;6.046;2023-09-12T04:34:26;101200.75;;;17.29;100.00
43820;BME280;67762;52.476;6.046;2023-09-12T04:36:52;101189.97;;;17.29;100.00
43820;BME280;67762;52.476;6.046;2023-09-12T04:39:19;101200.75;;;17.29;100.00
43820;BME280;67762;52.476;6.046;2023-09-12T04:41:44;101203.88;;;17.33;100.00
43820;BME280;67762;52.476;6.046;2023-09-12T04:44:10;101197.69;;;17.32;100.00
43820;BME280;67762;52.476;6.046;2023-09-12T04:46:36;101191.63;;;17.30;100.00
43820;BME280;67762;52.476;6.046;2023-09-12T04:49:03;101201.56;;;17.30;100.00
43820;BME280;67762;52.476;6.046;2023-09-12T04:51:29;101192.84;;;17.28;100.00
43820;BME280;67762;52.476;6.046;2023-09-12T04:53:54;101191.22;;;17.27;100.00
43820;BME280;67762;52.476;6.046;2023-09-12T04:56:20;101199.47;;;17.25;100.00
43820;BME280;67762;52.476;6.046;2023-09-12T04:58:46;101202.19;;;17.25;100.00
43820;BME280;67762;52.476;6.046;2023-09-12T05:01:12;101199.47;;;17.25;100.00
43820;BME280;67762;52.476;6.046;2023-09-12T05:03:37;101200.50;;;17.24;100.00
43820;BME280;67762;52.476;6.046;2023-09-12T05:06:03;101203.19;;;17.24;100.00
43820;BME280;67762;52.476;6.046;2023-09-12T05:08:29;101200.72;;;17.23;100.00
43820;BME280;67762;52.476;6.046;2023-09-12T05:10:55;101205.72;;;17.26;100.00
43820;BME280;67762;52.476;6.046;2023-09-12T05:13:21;101193.69;;;17.28;100.00
43820;BME280;67762;52.476;6.046;2023-09-12T05:15:46;101191.63;;;17.30;100.00
43820;BME280;67762;52.476;6.046;2023-09-12T05:18:12;101191.44;;;17.32;100.00
43820;BME280;67762;52.476;6.046;2023-09-12T05:20:38;101185.84;;;17.33;100.00
43820;BME280;67762;52.476;6.046;2023-09-12T05:23:04;101195.38;;;17.36;100.00
43820;BME280;67762;52.476;6.046;2023-09-12T05:25:29;101199.75;;;17.37;100.00
43820;BME280;67762;52.476;6.046;2023-09-12T05:27:56;101196.84;;;17.38;100.00
43820;BME280;67762;52.476;6.046;2023-09-12T05:30:22;101196.84;;;17.38;100.00
43820;BME280;67762;52.476;6.046;2023-09-12T05:32:48;101200.38;;;17.39;100.00
43820;BME280;67762;52.476;6.046;2023-09-12T05:35:14;101202.69;;;17.42;100.00
43820;BME280;67762;52.476;6.046;2023-09-12T05:37:40;101209.56;;;17.44;100.00
43820;BME280;67762;52.476;6.046;2023-09-12T05:40:06;101213.72;;;17.47;100.00
43820;BME280;67762;52.476;6.046;2023-09-12T05:42:32;101210.63;;;17.50;100.00
43820;BME280;67762;52.476;6.046;2023-09-12T05:44:58;101218.16;;;17.55;100.00
43820;BME280;67762;52.476;6.046;2023-09-12T05:47:23;101221.09;;;17.60;100.00
43820;BME280;67762;52.476;6.046;2023-09-12T05:49:50;101217.16;;;17.69;100.00
43820;BME280;67762;52.476;6.046;2023-09-12T05:52:15;101227.81;;;17.77;100.00
43820;BME280;67762;52.476;6.046;2023-09-12T05:54:41;101231.56;;;17.82;100.00
43820;BME280;67762;52.476;6.046;2023-09-12T05:57:08;101245.91;;;17.89;100.00
43820;BME280;67762;52.476;6.046;2023-09-12T05:59:37;101242.00;;;17.98;100.00
43820;BME280;67762;52.476;6.046;2023-09-12T06:02:04;101247.81;;;18.02;100.00
43820;BME280;67762;52.476;6.046;2023-09-12T06:04:32;101259.47;;;18.02;100.00
43820;BME280;67762;52.476;6.046;2023-09-12T06:06:58;101268.00;;;18.06;100.00
43820;BME280;67762;52.476;6.046;2023-09-12T06:09:23;101264.28;;;18.07;100.00
43820;BME280;67762;52.476;6.046;2023-09-12T06:11:50;101263.22;;;18.08;100.00
43820;BME280;67762;52.476;6.046;2023-09-12T06:14:16;101255.13;;;18.08;100.00
43820;BME280;67762;52.476;6.046;2023-09-12T06:16:41;101260.53;;;18.08;100.00
43820;BME280;67762;52.476;6.046;2023-09-12T06:19:07;101256.38;;;18.12;100.00
43820;BME280;67762;52.476;6.046;2023-09-12T06:21:33;101262.00;;;18.17;100.00
43820;BME280;67762;52.476;6.046;2023-09-12T06:24:28;101265.56;;;18.18;100.00
43820;BME280;67762;52.476;6.046;2023-09-12T06:26:54;101270.56;;;18.21;100.00
43820;BME280;67762;52.476;6.046;2023-09-12T06:29:19;101261.81;;;18.25;100.00
43820;BME280;67762;52.476;6.046;2023-09-12T06:31:45;101265.41;;;18.32;100.00
43820;BME280;67762;52.476;6.046;2023-09-12T06:34:11;101260.84;;;18.46;100.00
43820;BME280;67762;52.476;6.046;2023-09-12T06:36:38;101271.72;;;18.72;100.00
43820;BME280;67762;52.476;6.046;2023-09-12T06:39:04;101274.03;;;18.95;100.00
43820;BME280;67762;52.476;6.046;2023-09-12T06:41:32;101270.66;;;19.19;100.00
43820;BME280;67762;52.476;6.046;2023-09-12T06:43:58;101277.97;;;19.38;100.00
43820;BME280;67762;52.476;6.046;2023-09-12T06:46:25;101272.34;;;19.40;100.00
43820;BME280;67762;52.476;6.046;2023-09-12T06:48:50;101271.09;;;19.49;100.00
43820;BME280;67762;52.476;6.046;2023-09-12T06:51:17;101274.41;;;19.44;100.00
43820;BME280;67762;52.476;6.046;2023-09-12T06:53:43;101270.03;;;19.30;100.00
43820;BME280;67762;52.476;6.046;2023-09-12T06:56:09;101272.34;;;19.20;100.00
43820;BME280;67762;52.476;6.046;2023-09-12T06:58:35;101274.66;;;19.10;100.00
43820;BME280;67762;52.476;6.046;2023-09-12T07:01:02;101277.56;;;19.02;100.00
43820;BME280;67762;52.476;6.046;2023-09-12T07:03:30;101276.72;;;19.01;100.00
43820;BME280;67762;52.476;6.046;2023-09-12T07:05:56;101273.38;;;18.99;100.00
43820;BME280;67762;52.476;6.046;2023-09-12T07:08:21;101281.91;;;19.03;100.00
43820;BME280;67762;52.476;6.046;2023-09-12T07:10:47;101277.78;;;19.07;100.00
43820;BME280;67762;52.476;6.046;2023-09-12T07:13:13;101282.13;;;19.08;100.00
43820;BME280;67762;52.476;6.046;2023-09-12T07:15:39;101288.78;;;19.12;100.00
43820;BME280;67762;52.476;6.046;2023-09-12T07:18:04;101282.75;;;19.16;100.00
43820;BME280;67762;52.476;6.046;2023-09-12T07:20:33;101287.75;;;19.19;100.00
43820;BME280;67762;52.476;6.046;2023-09-12T07:22:59;101279.22;;;19.22;100.00
43820;BME280;67762;52.476;6.046;2023-09-12T07:25:25;101272.75;;;19.37;100.00
43820;BME280;67762;52.476;6.046;2023-09-12T07:27:51;101284.63;;;19.49;100.00
43820;BME280;67762;52.476;6.046;2023-09-12T07:30:17;101288.50;;;19.72;100.00
43820;BME280;67762;52.476;6.046;2023-09-12T07:32:42;101297.22;;;19.88;100.00
43820;BME280;67762;52.476;6.046;2023-09-12T07:35:08;101293.56;;;20.13;100.00
43820;BME280;67762;52.476;6.046;2023-09-12T07:37:34;101296.69;;;20.55;100.00
43820;BME280;67762;52.476;6.046;2023-09-12T07:40:00;101297.56;;;20.80;100.00
43820;BME280;67762;52.476;6.046;2023-09-12T07:42:26;101297.25;;;20.94;100.00
43820;BME280;67762;52.476;6.046;2023-09-12T07:44:51;101293.50;;;20.95;100.00
43820;BME280;67762;52.476;6.046;2023-09-12T07:47:17;101282.69;;;20.89;100.00
43820;BME280;67762;52.476;6.046;2023-09-12T07:49:43;101283.31;;;20.91;100.00
43820;BME280;67762;52.476;6.046;2023-09-12T07:52:09;101283.53;;;21.39;100.00
43820;BME280;67762;52.476;6.046;2023-09-12T07:54:34;101284.63;;;21.38;100.00
43820;BME280;67762;52.476;6.046;2023-09-12T07:57:02;101284.94;;;21.23;100.00
43820;BME280;67762;52.476;6.046;2023-09-12T07:59:28;101290.00;;;21.20;100.00
43820;BME280;67762;52.476;6.046;2023-09-12T08:01:54;101281.91;;;21.13;100.00
43820;BME280;67762;52.476;6.046;2023-09-12T08:04:19;101287.56;;;21.05;100.00
43820;BME280;67762;52.476;6.046;2023-09-12T08:06:45;101298.66;;;21.04;100.00
43820;BME280;67762;52.476;6.046;2023-09-12T08:09:11;101297.66;;;20.98;100.00
43820;BME280;67762;52.476;6.046;2023-09-12T08:11:36;101300.78;;;21.02;100.00
43820;BME280;67762;52.476;6.046;2023-09-12T08:14:02;101299.84;;;21.14;100.00
43820;BME280;67762;52.476;6.046;2023-09-12T08:16:28;101310.81;;;21.26;100.00
43820;BME280;67762;52.476;6.046;2023-09-12T08:18:53;101308.41;;;21.36;100.00
43820;BME280;67762;52.476;6.046;2023-09-12T08:21:19;101302.69;;;21.44;98.99
43820;BME280;67762;52.476;6.046;2023-09-12T08:23:45;101302.63;;;21.93;97.12
43820;BME280;67762;52.476;6.046;2023-09-12T08:26:11;101304.06;;;21.96;94.11
43820;BME280;67762;52.476;6.046;2023-09-12T08:28:36;101297.31;;;22.17;93.64
43820;BME280;67762;52.476;6.046;2023-09-12T08:31:02;101303.16;;;22.61;92.09
43820;BME280;67762;52.476;6.046;2023-09-12T08:33:28;101298.72;;;23.32;90.56
43820;BME280;67762;52.476;6.046;2023-09-12T08:35:53;101303.50;;;23.99;86.48
43820;BME280;67762;52.476;6.046;2023-09-12T08:38:19;101297.16;;;24.33;83.28
43820;BME280;67762;52.476;6.046;2023-09-12T08:40:51;101305.78;;;24.42;81.50
43820;BME280;67762;52.476;6.046;2023-09-12T08:43:18;101294.81;;;24.54;80.21
43820;BME280;67762;52.476;6.046;2023-09-12T08:45:44;101296.00;;;24.29;80.23
43820;BME280;67762;52.476;6.046;2023-09-12T08:48:11;101294.72;;;23.57;79.95
43820;BME280;67762;52.476;6.046;2023-09-12T08:50:38;101292.78;;;23.11;81.18
43820;BME280;67762;52.476;6.046;2023-09-12T08:53:04;101302.75;;;23.29;81.33
43820;BME280;67762;52.476;6.046;2023-09-12T08:55:31;101294.88;;;24.42;78.56
43820;BME280;67762;52.476;6.046;2023-09-12T08:57:59;101301.22;;;25.04;74.64
43820;BME280;67762;52.476;6.046;2023-09-12T09:00:26;101302.25;;;25.53;72.42
43820;BME280;67762;52.476;6.046;2023-09-12T09:02:53;101300.34;;;25.92;71.28
43820;BME280;67762;52.476;6.046;2023-09-12T09:05:20;101310.06;;;26.21;69.29
43820;BME280;67762;52.476;6.046;2023-09-12T09:07:48;101305.38;;;26.22;68.33
43820;BME280;67762;52.476;6.046;2023-09-12T09:10:18;101301.94;;;26.31;68.30
43820;BME280;67762;52.476;6.046;2023-09-12T09:12:45;101302.66;;;26.75;67.69
43820;BME280;67762;52.476;6.046;2023-09-12T09:15:28;101302.03;;;26.90;66.28
43820;BME280;67762;52.476;6.046;2023-09-12T09:17:56;101299.84;;;27.23;65.96
43820;BME280;67762;52.476;6.046;2023-09-12T09:20:30;101296.63;;;27.37;64.06
43820;BME280;67762;52.476;6.046;2023-09-12T09:23:01;101291.38;;;27.30;63.65
43820;BME280;67762;52.476;6.046;2023-09-12T09:25:27;101293.41;;;27.08;63.10
43820;BME280;67762;52.476;6.046;2023-09-12T09:27:53;101301.63;;;27.08;63.35
43820;BME280;67762;52.476;6.046;2023-09-12T09:30:39;101297.97;;;27.29;63.38
43820;BME280;67762;52.476;6.046;2023-09-12T09:33:05;101292.94;;;27.58;62.54
43820;BME280;67762;52.476;6.046;2023-09-12T09:35:30;101297.06;;;28.07;61.78
43820;BME280;67762;52.476;6.046;2023-09-12T09:37:56;101299.09;;;28.42;60.52
43820;BME280;67762;52.476;6.046;2023-09-12T09:40:22;101299.47;;;28.81;60.31
43820;BME280;67762;52.476;6.046;2023-09-12T09:42:53;101298.66;;;29.00;58.57
43820;BME280;67762;52.476;6.046;2023-09-12T09:45:19;101289.31;;;28.86;57.54
43820;BME280;67762;52.476;6.046;2023-09-12T09:47:45;101302.78;;;28.98;57.73
43820;BME280;67762;52.476;6.046;2023-09-12T09:50:14;101290.94;;;29.08;58.24
43820;BME280;67762;52.476;6.046;2023-09-12T09:52:40;101291.41;;;28.34;58.95
43820;BME280;67762;52.476;6.046;2023-09-12T09:55:06;101291.66;;;27.65;60.15
43820;BME280;67762;52.476;6.046;2023-09-12T09:57:37;101288.72;;;27.40;60.48
43820;BME280;67762;52.476;6.046;2023-09-12T10:00:03;101284.47;;;27.22;61.25
43820;BME280;67762;52.476;6.046;2023-09-12T10:02:35;101289.22;;;27.00;61.62
43820;BME280;67762;52.476;6.046;2023-09-12T10:05:04;101288.72;;;27.40;61.24
43820;BME280;67762;52.476;6.046;2023-09-12T10:07:38;101285.56;;;27.63;60.20
43820;BME280;67762;52.476;6.046;2023-09-12T10:10:06;101283.22;;;28.54;57.95
43820;BME280;67762;52.476;6.046;2023-09-12T10:12:35;101288.44;;;29.56;56.42
43820;BME280;67762;52.476;6.046;2023-09-12T10:15:03;101292.63;;;30.18;55.01
43820;BME280;67762;52.476;6.046;2023-09-12T10:17:35;101293.16;;;29.46;55.52
43820;BME280;67762;52.476;6.046;2023-09-12T10:20:08;101290.31;;;28.40;58.45
43820;BME280;67762;52.476;6.046;2023-09-12T10:22:40;101292.88;;;27.95;59.02
43820;BME280;67762;52.476;6.046;2023-09-12T10:25:09;101301.09;;;27.95;59.59
43820;BME280;67762;52.476;6.046;2023-09-12T10:27:37;101300.06;;;28.06;59.03
43820;BME280;67762;52.476;6.046;2023-09-12T10:30:03;101294.44;;;28.37;58.26
43820;BME280;67762;52.476;6.046;2023-09-12T10:32:31;101306.56;;;28.62;57.78
43820;BME280;67762;52.476;6.046;2023-09-12T10:34:59;101306.06;;;29.30;56.39
43820;BME280;67762;52.476;6.046;2023-09-12T10:37:26;101304.09;;;29.61;55.47
43820;BME280;67762;52.476;6.046;2023-09-12T10:39:53;101302.75;;;28.83;55.45
43820;BME280;67762;52.476;6.046;2023-09-12T10:42:20;101308.88;;;28.13;57.58
43820;BME280;67762;52.476;6.046;2023-09-12T10:44:46;101312.91;;;27.95;58.11
43820;BME280;67762;52.476;6.046;2023-09-12T10:47:13;101313.03;;;28.15;57.43
43820;BME280;67762;52.476;6.046;2023-09-12T10:49:39;101302.38;;;28.29;57.32
43820;BME280;67762;52.476;6.046;2023-09-12T10:52:08;101307.88;;;28.44;57.60
43820;BME280;67762;52.476;6.046;2023-09-12T10:54:38;101307.41;;;28.82;55.84
43820;BME280;67762;52.476;6.046;2023-09-12T10:57:08;101303.00;;;28.71;55.41
43820;BME280;67762;52.476;6.046;2023-09-12T10:59:36;101304.66;;;28.82;56.22
43820;BME280;67762;52.476;6.046;2023-09-12T11:02:39;101299.19;;;29.33;54.60
43820;BME280;67762;52.476;6.046;2023-09-12T11:05:07;101310.34;;;29.92;52.96
43820;BME280;67762;52.476;6.046;2023-09-12T11:07:56;101303.72;;;29.98;52.96
43820;BME280;67762;52.476;6.046;2023-09-12T11:10:22;101306.88;;;30.30;52.35
43820;BME280;67762;52.476;6.046;2023-09-12T11:12:57;101312.34;;;30.35;52.08
43820;BME280;67762;52.476;6.046;2023-09-12T11:15:25;101309.88;;;30.34;52.69
43820;BME280;67762;52.476;6.046;2023-09-12T11:20:50;101296.44;;;28.77;54.95
43820;BME280;67762;52.476;6.046;2023-09-12T11:23:17;101294.94;;;28.29;56.48
43820;BME280;67762;52.476;6.046;2023-09-12T11:25:43;101292.03;;;27.89;56.80
43820;BME280;67762;52.476;6.046;2023-09-12T11:28:09;101289.56;;;27.93;56.75
43820;BME280;67762;52.476;6.046;2023-09-12T11:30:34;101288.19;;;27.90;57.08
43820;BME280;67762;52.476;6.046;2023-09-12T11:33:04;101281.25;;;27.77;56.90
43820;BME280;67762;52.476;6.046;2023-09-12T11:35:36;101287.31;;;27.79;56.92
43820;BME280;67762;52.476;6.046;2023-09-12T11:38:03;101296.09;;;28.54;56.05
43820;BME280;67762;52.476;6.046;2023-09-12T11:42:58;101292.19;;;30.50;51.52
43820;BME280;67762;52.476;6.046;2023-09-12T11:45:24;101294.91;;;30.99;50.72
43820;BME280;67762;52.476;6.046;2023-09-12T11:47:50;101294.19;;;31.17;50.41
43820;BME280;67762;52.476;6.046;2023-09-12T11:50:52;101291.47;;;31.12;49.74
43820;BME280;67762;52.476;6.046;2023-09-12T11:53:20;101283.53;;;31.05;49.89
43820;BME280;67762;52.476;6.046;2023-09-12T11:55:48;101289.88;;;31.87;48.93
43820;BME280;67762;52.476;6.046;2023-09-12T11:58:17;101286.94;;;32.02;47.68
43820;BME280;67762;52.476;6.046;2023-09-12T12:00:47;101282.03;;;31.94;47.19
43820;BME280;67762;52.476;6.046;2023-09-12T12:03:14;101270.44;;;32.16;46.74
43820;BME280;67762;52.476;6.046;2023-09-12T12:05:41;101265.38;;;31.04;48.00
43820;BME280;67762;52.476;6.046;2023-09-12T12:08:08;101266.63;;;30.44;49.09
43820;BME280;67762;52.476;6.046;2023-09-12T12:10:34;101258.09;;;30.46;49.12
43820;BME280;67762;52.476;6.046;2023-09-12T12:13:00;101247.88;;;29.97;50.12
43820;BME280;67762;52.476;6.046;2023-09-12T12:15:29;101247.47;;;29.50;51.26
43820;BME280;67762;52.476;6.046;2023-09-12T12:17:57;101242.16;;;29.79;50.85
43820;BME280;67762;52.476;6.046;2023-09-12T12:20:23;101233.59;;;29.90;50.16
43820;BME280;67762;52.476;6.046;2023-09-12T12:22:49;101238.03;;;29.71;50.10
43820;BME280;67762;52.476;6.046;2023-09-12T12:25:18;101230.22;;;28.99;50.56
43820;BME280;67762;52.476;6.046;2023-09-12T12:27:44;101231.06;;;28.89;50.81
43820;BME280;67762;52.476;6.046;2023-09-12T12:30:12;101231.28;;;29.13;50.13
43820;BME280;67762;52.476;6.046;2023-09-12T12:32:45;101229.75;;;29.86;48.63
43820;BME280;67762;52.476;6.046;2023-09-12T12:35:19;101235.50;;;30.44;48.23
43820;BME280;67762;52.476;6.046;2023-09-12T12:37:44;101237.88;;;30.94;46.94
43820;BME280;67762;52.476;6.046;2023-09-12T12:40:14;101241.88;;;31.83;44.94
43820;BME280;67762;52.476;6.046;2023-09-12T12:42:41;101247.13;;;32.46;43.86
43820;BME280;67762;52.476;6.046;2023-09-12T12:45:19;101236.09;;;33.10;42.94
43820;BME280;67762;52.476;6.046;2023-09-12T12:47:45;101231.72;;;33.09;44.67
43820;BME280;67762;52.476;6.046;2023-09-12T12:50:15;101227.31;;;33.08;42.28